Milk And Honey — WDF9265 — position and weather

sailwx.info

Track history (hours):
 
Tides and Currents Weather Stations Pressure Air Temp Water Temp Dewpoint Dewpoint Depression Visibility Wind Speed Wind Dir Waves Ship Positions

Milk And Honey

Owner: EKS Chartering Inc, Parsippany, NJ. More information available from US FCC via Universal Licensing System and Coast Guard Vessel Documentation Center.

Last reported at 2016-Feb-07 18:06 UTC. Time now 2016-Feb-07 21:35 UTC.
Position N 18°26' W 064°30'.

Length 40 m.

Type: Pleasure craft. MMSI: 367503380.

Date/timePositionNaut miles runAvg speedWind from/ knotsBaromVisibWave heightAir tempDewpointWater temp
2016-Feb-07 18:06N 18°26' W 064°30'611.0
2016-Feb-07 17:33N 18°22' W 064°35'4 0.6
2016-Feb-07 10:33N 18°19' W 064°37'0 0.0
2016-Feb-07 09:27N 18°19' W 064°37'0 0.0
2016-Feb-07 08:31N 18°19' W 064°37'0 0.0
2016-Feb-07 07:28N 18°19' W 064°37'0 0.0
2016-Feb-07 06:33N 18°19' W 064°37'0 0.0
2016-Feb-07 05:26N 18°19' W 064°37'0 0.0
2016-Feb-07 04:25N 18°19' W 064°37'0 0.0
2016-Feb-07 03:33N 18°19' W 064°37'0 0.0
2016-Feb-07 02:33N 18°19' W 064°37'3 0.6
2016-Feb-06 21:29N 18°21' W 064°40'8 8.4
2016-Feb-06 20:33N 18°26' W 064°46'0 0.0
2016-Feb-06 19:33N 18°26' W 064°46'0 0.0
2016-Feb-06 18:33N 18°26' W 064°46'0 0.0
2016-Feb-06 17:33N 18°26' W 064°46'0 0.0
2016-Feb-06 16:33N 18°26' W 064°46'1 1.4
2016-Feb-06 15:33N 18°26' W 064°44'4 2.2
2016-Feb-06 13:33N 18°26' W 064°40'0 0.0
2016-Feb-06 12:33N 18°26' W 064°40'0 0.0
2016-Feb-06 11:33N 18°26' W 064°40'0 0.0
2016-Feb-06 10:33N 18°26' W 064°40'0 0.0
2016-Feb-06 09:33N 18°26' W 064°40'0 0.0
2016-Feb-06 08:33N 18°26' W 064°40'0 0.0
2016-Feb-06 07:33N 18°26' W 064°40'0 0.0
2016-Feb-06 06:33N 18°26' W 064°40'0 0.0
2016-Feb-06 05:33N 18°26' W 064°40'0 0.0
2016-Feb-06 04:33N 18°26' W 064°40'0 0.0
2016-Feb-06 03:33N 18°26' W 064°40'0 0.0
2016-Feb-06 02:33N 18°26' W 064°40'0 0.0
2016-Feb-06 01:33N 18°26' W 064°40'0 0.0
2016-Feb-06 00:33N 18°26' W 064°40'0 0.0
2016-Feb-05 23:33N 18°26' W 064°40'0 0.0
2016-Feb-05 22:33N 18°26' W 064°40'0 0.8
2016-Feb-05 22:32N 18°26' W 064°40'4 4.0
2016-Feb-05 21:33N 18°24' W 064°43'1 0.5
2016-Feb-05 20:33N 18°23' W 064°43'1111.0
2016-Feb-05 19:33N 18°18' W 064°53'  
2016-Feb-02 21:13N 18°18' W 064°53'5 7.0
2016-Feb-02 20:33N 18°20' W 064°48'10 1.0
2016-Feb-02 10:31N 18°19' W 064°37'0 0.0
2016-Feb-02 09:31N 18°19' W 064°37'0 0.0
2016-Feb-02 08:31N 18°19' W 064°37'0 0.0
2016-Feb-02 07:33N 18°19' W 064°37'0 0.0
2016-Feb-02 06:33N 18°19' W 064°37'0 0.0
2016-Feb-02 05:29N 18°19' W 064°37'0 0.0
2016-Feb-02 04:30N 18°19' W 064°37'0 0.0
2016-Feb-02 03:32N 18°19' W 064°37'0 0.0
2016-Feb-02 02:25N 18°19' W 064°37'0 0.0
2016-Feb-02 01:32N 18°19' W 064°37'0 0.0
2016-Feb-02 00:28N 18°19' W 064°37'0 0.0
2016-Feb-01 23:33N 18°19' W 064°37'0 0.0
2016-Feb-01 22:33N 18°19' W 064°37'4 0.9
2016-Feb-01 17:33N 18°23' W 064°35'5 1.8
2016-Feb-01 14:32N 18°28' W 064°35'0 0.0
2016-Feb-01 12:32N 18°28' W 064°35'0 0.0
2016-Feb-01 11:09N 18°28' W 064°35'0 0.0
2016-Feb-01 10:33N 18°28' W 064°35'0 0.0
2016-Feb-01 09:33N 18°28' W 064°35'0 0.0
2016-Feb-01 08:33N 18°28' W 064°35'0 0.0
2016-Feb-01 07:33N 18°28' W 064°35'0 0.0
2016-Feb-01 05:33N 18°28' W 064°35'0 0.0
2016-Feb-01 04:33N 18°28' W 064°35'0 0.0
2016-Feb-01 02:33N 18°28' W 064°35'0 0.0
2016-Feb-01 01:32N 18°28' W 064°35'0 0.0
2016-Feb-01 00:32N 18°28' W 064°35'0 0.0
2016-Jan-31 23:33N 18°28' W 064°35'0 0.0
2016-Jan-31 22:33N 18°28' W 064°35'0 0.0
2016-Jan-31 21:33N 18°28' W 064°35'0 0.0
2016-Jan-31 20:33N 18°28' W 064°35'0 0.0
2016-Jan-31 19:33N 18°28' W 064°35'0 0.0
2016-Jan-31 18:33N 18°28' W 064°35'0 0.0
2016-Jan-31 17:21N 18°28' W 064°35'0 0.1
2016-Jan-31 16:33N 18°28' W 064°35'0 0.0
2016-Jan-31 15:32N 18°28' W 064°35'0 0.0
2016-Jan-31 14:33N 18°28' W 064°35'2 2.0
2016-Jan-31 13:21N 18°30' W 064°33'4 0.2
2016-Jan-30 14:05N 18°28' W 064°28'6 8.3
2016-Jan-30 13:25N 18°23' W 064°31'0 0.2
2016-Jan-30 12:06N 18°23' W 064°31'0 0.0
2016-Jan-30 11:33N 18°23' W 064°31'0 0.0
2016-Jan-30 10:34N 18°23' W 064°31'0 0.1
2016-Jan-30 09:33N 18°23' W 064°31'0 0.0
2016-Jan-30 08:34N 18°23' W 064°31'0 0.1
2016-Jan-30 07:34N 18°23' W 064°31'0 0.0
2016-Jan-30 06:33N 18°23' W 064°31'0 0.0
2016-Jan-30 05:34N 18°23' W 064°31'0 0.0
2016-Jan-30 04:33N 18°23' W 064°31'0 0.0
2016-Jan-30 03:31N 18°23' W 064°31'0 0.0
2016-Jan-30 02:34N 18°23' W 064°31'0 0.0
2016-Jan-30 01:33N 18°23' W 064°31'0 0.0
2016-Jan-30 00:34N 18°23' W 064°31'0 0.0
2016-Jan-29 23:34N 18°23' W 064°31'0 0.0
2016-Jan-29 22:33N 18°23' W 064°31'0 0.0
2016-Jan-29 21:34N 18°23' W 064°31'0 0.0
2016-Jan-29 20:34N 18°23' W 064°31'0 0.1
2016-Jan-29 19:33N 18°23' W 064°31'0 0.1
2016-Jan-29 18:29N 18°23' W 064°31'0 0.0
2016-Jan-29 17:33N 18°23' W 064°31'0 0.0
2016-Jan-29 16:33N 18°23' W 064°31'0 0.0
2016-Jan-29 15:33N 18°23' W 064°31'0 0.0
2016-Jan-29 14:33N 18°23' W 064°31'0 0.0
2016-Jan-29 13:33N 18°23' W 064°31'1 1.5
2016-Jan-29 12:33N 18°23' W 064°32'3 2.7
2016-Jan-29 11:31N 18°21' W 064°35'0 0.0
2016-Jan-29 10:32N 18°21' W 064°35'0 0.0
2016-Jan-29 09:30N 18°21' W 064°35'0 0.0
2016-Jan-29 08:29N 18°21' W 064°35'0 0.0
2016-Jan-29 07:32N 18°21' W 064°35'0 0.0
2016-Jan-29 06:33N 18°21' W 064°35'0 0.0
2016-Jan-29 05:33N 18°21' W 064°35'0 0.0
2016-Jan-29 04:31N 18°21' W 064°35'0 0.0
2016-Jan-29 03:33N 18°21' W 064°35'0 0.0
2016-Jan-29 02:27N 18°21' W 064°35'0 0.0
2016-Jan-29 01:31N 18°21' W 064°35'0 0.0
2016-Jan-29 00:18N 18°21' W 064°35'0 0.0
2016-Jan-28 23:33N 18°21' W 064°35'0 0.0
2016-Jan-28 22:33N 18°21' W 064°35'0 0.0
2016-Jan-28 21:31N 18°21' W 064°35'0 0.0
2016-Jan-28 20:27N 18°21' W 064°35'0 0.0
2016-Jan-28 19:03N 18°21' W 064°35'0 0.0
2016-Jan-28 18:11N 18°21' W 064°35'  
Track history (hours):
 
Tides and Currents Weather Stations Pressure Air Temp Water Temp Dewpoint Dewpoint Depression Visibility Wind Speed Wind Dir Waves Ship Positions

Milk And Honey

Owner: EKS Chartering Inc, Parsippany, NJ. More information available from US FCC via Universal Licensing System and Coast Guard Vessel Documentation Center.

Last reported at 2016-Feb-07 18:06 UTC. Time now 2016-Feb-07 21:35 UTC.
Position N 18°26' W 064°30'.

Length 40 m.

Type: Pleasure craft. MMSI: 367503380.

Date/timePositionNaut miles runAvg speedWind from/ knotsBaromVisibWave heightAir tempDewpointWater temp
2016-Feb-07 18:06N 18°26' W 064°30'611.0
2016-Feb-07 17:33N 18°22' W 064°35'4 0.6
2016-Feb-07 10:33N 18°19' W 064°37'0 0.0
2016-Feb-07 09:27N 18°19' W 064°37'0 0.0
2016-Feb-07 08:31N 18°19' W 064°37'0 0.0
2016-Feb-07 07:28N 18°19' W 064°37'0 0.0
2016-Feb-07 06:33N 18°19' W 064°37'0 0.0
2016-Feb-07 05:26N 18°19' W 064°37'0 0.0
2016-Feb-07 04:25N 18°19' W 064°37'0 0.0
2016-Feb-07 03:33N 18°19' W 064°37'0 0.0
2016-Feb-07 02:33N 18°19' W 064°37'3 0.6
2016-Feb-06 21:29N 18°21' W 064°40'8 8.4
2016-Feb-06 20:33N 18°26' W 064°46'0 0.0
2016-Feb-06 19:33N 18°26' W 064°46'0 0.0
2016-Feb-06 18:33N 18°26' W 064°46'0 0.0
2016-Feb-06 17:33N 18°26' W 064°46'0 0.0
2016-Feb-06 16:33N 18°26' W 064°46'1 1.4
2016-Feb-06 15:33N 18°26' W 064°44'4 2.2
2016-Feb-06 13:33N 18°26' W 064°40'0 0.0
2016-Feb-06 12:33N 18°26' W 064°40'0 0.0
2016-Feb-06 11:33N 18°26' W 064°40'0 0.0
2016-Feb-06 10:33N 18°26' W 064°40'0 0.0
2016-Feb-06 09:33N 18°26' W 064°40'0 0.0
2016-Feb-06 08:33N 18°26' W 064°40'0 0.0
2016-Feb-06 07:33N 18°26' W 064°40'0 0.0
2016-Feb-06 06:33N 18°26' W 064°40'0 0.0
2016-Feb-06 05:33N 18°26' W 064°40'0 0.0
2016-Feb-06 04:33N 18°26' W 064°40'0 0.0
2016-Feb-06 03:33N 18°26' W 064°40'0 0.0
2016-Feb-06 02:33N 18°26' W 064°40'0 0.0
2016-Feb-06 01:33N 18°26' W 064°40'0 0.0
2016-Feb-06 00:33N 18°26' W 064°40'0 0.0
2016-Feb-05 23:33N 18°26' W 064°40'0 0.0
2016-Feb-05 22:33N 18°26' W 064°40'0 0.8
2016-Feb-05 22:32N 18°26' W 064°40'4 4.0
2016-Feb-05 21:33N 18°24' W 064°43'1 0.5
2016-Feb-05 20:33N 18°23' W 064°43'1111.0
2016-Feb-05 19:33N 18°18' W 064°53'  
2016-Feb-02 21:13N 18°18' W 064°53'5 7.0
2016-Feb-02 20:33N 18°20' W 064°48'10 1.0
2016-Feb-02 10:31N 18°19' W 064°37'0 0.0
2016-Feb-02 09:31N 18°19' W 064°37'0 0.0
2016-Feb-02 08:31N 18°19' W 064°37'0 0.0
2016-Feb-02 07:33N 18°19' W 064°37'0 0.0
2016-Feb-02 06:33N 18°19' W 064°37'0 0.0
2016-Feb-02 05:29N 18°19' W 064°37'0 0.0
2016-Feb-02 04:30N 18°19' W 064°37'0 0.0
2016-Feb-02 03:32N 18°19' W 064°37'0 0.0
2016-Feb-02 02:25N 18°19' W 064°37'0 0.0
2016-Feb-02 01:32N 18°19' W 064°37'0 0.0
2016-Feb-02 00:28N 18°19' W 064°37'0 0.0
2016-Feb-01 23:33N 18°19' W 064°37'0 0.0
2016-Feb-01 22:33N 18°19' W 064°37'4 0.9
2016-Feb-01 17:33N 18°23' W 064°35'5 1.8
2016-Feb-01 14:32N 18°28' W 064°35'0 0.0
2016-Feb-01 12:32N 18°28' W 064°35'0 0.0
2016-Feb-01 11:09N 18°28' W 064°35'0 0.0
2016-Feb-01 10:33N 18°28' W 064°35'0 0.0
2016-Feb-01 09:33N 18°28' W 064°35'0 0.0
2016-Feb-01 08:33N 18°28' W 064°35'0 0.0
2016-Feb-01 07:33N 18°28' W 064°35'0 0.0
2016-Feb-01 05:33N 18°28' W 064°35'0 0.0
2016-Feb-01 04:33N 18°28' W 064°35'0 0.0
2016-Feb-01 02:33N 18°28' W 064°35'0 0.0
2016-Feb-01 01:32N 18°28' W 064°35'0 0.0
2016-Feb-01 00:32N 18°28' W 064°35'0 0.0
2016-Jan-31 23:33N 18°28' W 064°35'0 0.0
2016-Jan-31 22:33N 18°28' W 064°35'0 0.0
2016-Jan-31 21:33N 18°28' W 064°35'0 0.0
2016-Jan-31 20:33N 18°28' W 064°35'0 0.0
2016-Jan-31 19:33N 18°28' W 064°35'0 0.0
2016-Jan-31 18:33N 18°28' W 064°35'0 0.0
2016-Jan-31 17:21N 18°28' W 064°35'0 0.1
2016-Jan-31 16:33N 18°28' W 064°35'0 0.0
2016-Jan-31 15:32N 18°28' W 064°35'0 0.0
2016-Jan-31 14:33N 18°28' W 064°35'2 2.0
2016-Jan-31 13:21N 18°30' W 064°33'4 0.2
2016-Jan-30 14:05N 18°28' W 064°28'6 8.3
2016-Jan-30 13:25N 18°23' W 064°31'0 0.2
2016-Jan-30 12:06N 18°23' W 064°31'0 0.0
2016-Jan-30 11:33N 18°23' W 064°31'0 0.0
2016-Jan-30 10:34N 18°23' W 064°31'0 0.1
2016-Jan-30 09:33N 18°23' W 064°31'0 0.0
2016-Jan-30 08:34N 18°23' W 064°31'0 0.1
2016-Jan-30 07:34N 18°23' W 064°31'0 0.0
2016-Jan-30 06:33N 18°23' W 064°31'0 0.0
2016-Jan-30 05:34N 18°23' W 064°31'0 0.0
2016-Jan-30 04:33N 18°23' W 064°31'0 0.0
2016-Jan-30 03:31N 18°23' W 064°31'0 0.0
2016-Jan-30 02:34N 18°23' W 064°31'0 0.0
2016-Jan-30 01:33N 18°23' W 064°31'0 0.0
2016-Jan-30 00:34N 18°23' W 064°31'0 0.0
2016-Jan-29 23:34N 18°23' W 064°31'0 0.0
2016-Jan-29 22:33N 18°23' W 064°31'0 0.0
2016-Jan-29 21:34N 18°23' W 064°31'0 0.0
2016-Jan-29 20:34N 18°23' W 064°31'0 0.1
2016-Jan-29 19:33N 18°23' W 064°31'0 0.1
2016-Jan-29 18:29N 18°23' W 064°31'0 0.0
2016-Jan-29 17:33N 18°23' W 064°31'0 0.0
2016-Jan-29 16:33N 18°23' W 064°31'0 0.0
2016-Jan-29 15:33N 18°23' W 064°31'0 0.0
2016-Jan-29 14:33N 18°23' W 064°31'0 0.0
2016-Jan-29 13:33N 18°23' W 064°31'1 1.5
2016-Jan-29 12:33N 18°23' W 064°32'3 2.7
2016-Jan-29 11:31N 18°21' W 064°35'0 0.0
2016-Jan-29 10:32N 18°21' W 064°35'0 0.0
2016-Jan-29 09:30N 18°21' W 064°35'0 0.0
2016-Jan-29 08:29N 18°21' W 064°35'0 0.0
2016-Jan-29 07:32N 18°21' W 064°35'0 0.0
2016-Jan-29 06:33N 18°21' W 064°35'0 0.0
2016-Jan-29 05:33N 18°21' W 064°35'0 0.0
2016-Jan-29 04:31N 18°21' W 064°35'0 0.0
2016-Jan-29 03:33N 18°21' W 064°35'0 0.0
2016-Jan-29 02:27N 18°21' W 064°35'0 0.0
2016-Jan-29 01:31N 18°21' W 064°35'0 0.0
2016-Jan-29 00:18N 18°21' W 064°35'0 0.0
2016-Jan-28 23:33N 18°21' W 064°35'0 0.0
2016-Jan-28 22:33N 18°21' W 064°35'0 0.0
2016-Jan-28 21:31N 18°21' W 064°35'0 0.0
2016-Jan-28 20:27N 18°21' W 064°35'0 0.0
2016-Jan-28 19:03N 18°21' W 064°35'0 0.0
2016-Jan-28 18:11N 18°21' W 064°35'  

Dump ship's entire track history